Time;durP1;ratioP1;P1;durP2;ratioP2;P2;SDS_P1;SDS_P2;PMS_P1;PMS_P2;Temp;Humidity;BMP_temperature;BMP_pressure;BME280_temperature;BME280_humidity;BME280_pressure;Samples;Min_cycle;Max_cycle;Signal;HPM_P1;HPM_P2
2021/01/08 00:02:19;;;;;;;0.98;0.40;;;14.50;52.20;;;;;;6248792;23;20027;-80
2021/01/08 00:04:45;;;;;;;1.10;0.50;;;14.50;52.20;;;;;;6222232;23;20091;-81
2021/01/08 00:07:12;;;;;;;0.98;0.40;;;14.50;52.20;;;;;;6232245;23;20008;-83
2021/01/08 00:09:38;;;;;;;0.90;0.50;;;14.50;52.20;;;;;;6222052;23;20040;-82
2021/01/08 00:12:06;;;;;;;1.13;0.43;;;14.60;52.20;;;;;;6222412;23;20027;-81
2021/01/08 00:14:32;;;;;;;1.13;0.40;;;14.60;52.10;;;;;;6221658;23;20406;-81
2021/01/08 00:16:58;;;;;;;1.42;0.30;;;14.60;52.00;;;;;;6248648;23;20091;-82
2021/01/08 00:19:24;;;;;;;0.88;0.40;;;14.60;51.90;;;;;;6248352;23;20090;-81
2021/01/08 00:21:51;;;;;;;0.73;0.30;;;14.60;51.90;;;;;;6221848;23;20095;-81
2021/01/08 00:24:17;;;;;;;0.60;0.30;;;14.60;51.80;;;;;;6258814;23;20023;-80
2021/01/08 00:26:43;;;;;;;1.75;0.40;;;14.60;52.40;;;;;;6222137;23;20012;-81
2021/01/08 00:29:12;;;;;;;0.50;0.20;;;14.60;51.80;;;;;;6258180;23;20019;-81
2021/01/08 00:31:39;;;;;;;0.65;0.25;;;14.60;51.60;;;;;;6232347;23;20034;-81
2021/01/08 00:34:15;;;;;;;0.70;0.30;;;14.70;51.70;;;;;;6248259;23;20015;-81
2021/01/08 00:36:49;;;;;;;0.70;0.30;;;14.70;51.60;;;;;;6221786;23;20016;-81
2021/01/08 00:39:16;;;;;;;0.73;0.20;;;14.60;52.20;;;;;;6222241;23;20378;-80
2021/01/08 00:41:42;;;;;;;0.30;0.10;;;14.60;51.50;;;;;;6221450;23;20008;-81
2021/01/08 00:44:08;;;;;;;0.50;0.20;;;14.60;51.50;;;;;;6231734;23;20082;-83
2021/01/08 00:46:36;;;;;;;0.30;0.20;;;14.60;51.40;;;;;;6196291;23;20051;-82
2021/01/08 00:49:06;;;;;;;1.25;0.30;;;14.70;51.50;;;;;;6222181;23;20012;-82
2021/01/08 00:51:33;;;;;;;0.40;0.20;;;14.60;51.40;;;;;;6231871;23;20071;-81
2021/01/08 00:54:00;;;;;;;1.30;0.25;;;14.60;51.30;;;;;;6196534;23;20035;-82
2021/01/08 00:56:26;;;;;;;0.50;0.20;;;14.60;51.30;;;;;;6186489;23;20020;-82
2021/01/08 00:58:52;;;;;;;0.68;0.25;;;14.50;51.30;;;;;;6160945;23;20013;-82
2021/01/08 01:01:19;;;;;;;0.70;0.25;;;14.60;51.40;;;;;;6187380;23;20021;-80
2021/01/08 01:03:45;;;;;;;0.70;0.30;;;14.50;51.30;;;;;;6185890;23;20017;-81
2021/01/08 01:06:12;;;;;;;1.02;0.35;;;14.50;51.20;;;;;;6185326;23;20083;-80
2021/01/08 01:08:38;;;;;;;0.40;0.20;;;14.50;51.20;;;;;;6185750;23;20017;-81
2021/01/08 01:11:05;;;;;;;0.40;0.22;;;14.50;51.20;;;;;;6167368;23;20021;-81
2021/01/08 01:13:31;;;;;;;0.60;0.20;;;14.50;51.30;;;;;;6185649;23;20024;-81
2021/01/08 01:15:57;;;;;;;0.68;0.17;;;14.50;51.30;;;;;;6185377;23;20025;-81
2021/01/08 01:18:23;;;;;;;0.40;0.20;;;14.50;51.30;;;;;;6185539;23;20017;-82
2021/01/08 01:20:49;;;;;;;0.43;0.20;;;14.50;51.20;;;;;;6185298;23;20418;-80
2021/01/08 01:23:15;;;;;;;0.70;0.20;;;14.50;51.30;;;;;;6195362;23;20371;-81
2021/01/08 01:25:41;;;;;;;0.47;0.20;;;14.50;51.30;;;;;;6195527;23;20017;-81
2021/01/08 01:28:07;;;;;;;0.40;0.10;;;14.50;51.30;;;;;;6235716;23;20020;-81
2021/01/08 01:30:34;;;;;;;0.65;0.25;;;14.50;51.30;;;;;;6247513;23;20081;-81
2021/01/08 01:33:00;;;;;;;1.65;0.20;;;14.50;51.40;;;;;;6222177;23;20402;-82
2021/01/08 01:35:26;;;;;;;0.40;0.20;;;14.50;51.30;;;;;;6231789;23;20004;-82
2021/01/08 01:37:53;;;;;;;0.75;0.25;;;14.50;51.30;;;;;;6196307;23;20434;-81
2021/01/08 01:40:20;;;;;;;0.40;0.20;;;14.50;51.30;;;;;;6220988;23;20429;-82
2021/01/08 01:42:46;;;;;;;0.65;0.30;;;14.50;51.30;;;;;;6248027;23;20032;-82
2021/01/08 01:45:12;;;;;;;1.27;0.20;;;14.50;51.30;;;;;;6248094;23;20012;-81
2021/01/08 01:47:39;;;;;;;1.08;0.20;;;14.50;51.30;;;;;;6231661;23;20016;-81
2021/01/08 01:50:06;;;;;;;0.63;0.25;;;14.50;51.20;;;;;;6248411;23;20008;-81
2021/01/08 01:52:32;;;;;;;0.57;0.20;;;14.50;51.30;;;;;;6196181;23;20027;-80
2021/01/08 01:54:58;;;;;;;1.30;0.20;;;14.40;51.20;;;;;;6247650;23;20083;-81
2021/01/08 01:57:24;;;;;;;0.30;0.10;;;14.50;51.20;;;;;;6231998;23;20085;-83
2021/01/08 01:59:49;;;;;;;0.47;0.10;;;14.50;51.20;;;;;;6223781;23;20067;-83
2021/01/08 02:02:25;;;;;;;0.20;0.10;;;14.40;51.10;;;;;;6223394;23;20012;-81
2021/01/08 02:04:54;;;;;;;0.40;0.10;;;14.50;51.20;;;;;;6223159;23;20452;-80
2021/01/08 02:07:23;;;;;;;0.32;0.10;;;14.50;51.10;;;;;;6223532;23;20069;-82
2021/01/08 02:09:50;;;;;;;0.65;0.20;;;14.50;51.10;;;;;;6223017;23;20051;-82
2021/01/08 02:12:17;;;;;;;0.63;0.10;;;14.50;51.10;;;;;;6249812;23;20418;-82
2021/01/08 02:14:45;;;;;;;0.40;0.10;;;14.50;51.10;;;;;;6223637;23;20012;-80
2021/01/08 02:17:14;;;;;;;0.50;0.10;;;14.40;51.00;;;;;;6249897;23;20008;-82
2021/01/08 02:19:48;;;;;;;0.35;0.10;;;14.50;51.10;;;;;;6223508;23;20008;-83
2021/01/08 02:22:47;;;;;;;0.40;0.10;;;14.40;51.00;;;;;;6223710;23;20026;-81
2021/01/08 02:25:30;;;;;;;0.30;0.10;;;14.40;51.00;;;;;;6218045;23;20043;-80
2021/01/08 02:28:22;;;;;;;1.45;0.10;;;14.40;51.00;;;;;;6222928;23;20024;-81
2021/01/08 02:30:50;;;;;;;0.22;0.10;;;14.40;51.60;;;;;;6233470;23;20023;-81
2021/01/08 02:33:17;;;;;;;0.35;0.10;;;14.40;51.00;;;;;;6233016;23;20031;-81
2021/01/08 02:35:46;;;;;;;0.35;0.13;;;14.40;51.00;;;;;;6222900;23;20040;-82
2021/01/08 02:38:14;;;;;;;0.40;0.08;;;14.40;51.00;;;;;;6233864;23;20012;-82
2021/01/08 02:40:43;;;;;;;0.60;0.20;;;14.50;51.00;;;;;;6222695;23;20029;-82
2021/01/08 02:43:09;;;;;;;1.67;0.10;;;14.50;50.90;;;;;;6223056;23;20036;-80
2021/01/08 02:45:35;;;;;;;0.75;0.10;;;14.50;50.80;;;;;;6223391;23;20290;-80
2021/01/08 02:48:01;;;;;;;0.77;0.20;;;14.50;50.70;;;;;;6259748;23;20070;-82
2021/01/08 02:50:27;;;;;;;0.63;0.10;;;14.50;50.70;;;;;;6222821;23;20012;-80
2021/01/08 02:52:58;;;;;;;0.35;0.20;;;14.50;50.60;;;;;;6232815;23;20008;-82
2021/01/08 02:55:30;;;;;;;1.38;0.10;;;14.50;50.70;;;;;;6259318;23;20012;-80
2021/01/08 02:57:59;;;;;;;0.30;0.10;;;14.50;50.50;;;;;;6223267;23;20012;-80
2021/01/08 03:00:27;;;;;;;0.30;0.20;;;14.50;51.10;;;;;;6249734;23;20373;-82
2021/01/08 03:02:54;;;;;;;0.10;0.00;;;14.50;50.40;;;;;;6259290;23;20019;-80
2021/01/08 03:05:20;;;;;;;0.28;0.10;;;14.50;50.50;;;;;;6222816;23;20083;-80
2021/01/08 03:07:48;;;;;;;0.50;0.30;;;14.50;50.40;;;;;;6248857;23;20035;-80
2021/01/08 03:10:15;;;;;;;1.63;0.10;;;14.50;50.40;;;;;;6258853;23;20008;-80
2021/01/08 03:12:47;;;;;;;0.30;0.20;;;14.50;50.30;;;;;;6249004;23;20004;-82
2021/01/08 03:15:13;;;;;;;0.50;0.20;;;14.50;50.30;;;;;;6259688;23;20398;-80
2021/01/08 03:17:39;;;;;;;0.55;0.20;;;14.50;50.30;;;;;;6259116;23;20019;-80
2021/01/08 03:20:05;;;;;;;1.02;0.10;;;14.50;50.30;;;;;;6222361;23;20009;-81
2021/01/08 03:22:31;;;;;;;0.50;0.15;;;14.50;50.30;;;;;;6259117;23;20012;-82
2021/01/08 03:24:57;;;;;;;0.25;0.10;;;14.50;50.20;;;;;;6222497;23;20027;-81
2021/01/08 03:27:23;;;;;;;0.52;0.28;;;14.50;50.20;;;;;;6222605;23;20356;-81
2021/01/08 03:29:48;;;;;;;0.65;0.10;;;14.50;50.20;;;;;;6222858;23;20052;-81
2021/01/08 03:32:14;;;;;;;0.63;0.10;;;14.50;50.20;;;;;;6232962;23;20027;-80
2021/01/08 03:34:40;;;;;;;0.55;0.03;;;14.50;50.30;;;;;;6249140;23;20008;-81
2021/01/08 03:37:06;;;;;;;0.50;0.10;;;14.50;50.30;;;;;;6223069;23;20009;-83
2021/01/08 03:39:32;;;;;;;0.45;0.30;;;14.50;50.30;;;;;;6232595;23;20008;-80
2021/01/08 03:41:57;;;;;;;0.30;0.20;;;14.50;50.20;;;;;;6222311;23;20031;-81
2021/01/08 03:44:23;;;;;;;0.28;0.10;;;14.50;50.30;;;;;;6222374;23;20425;-81
2021/01/08 03:46:49;;;;;;;0.10;0.00;;;14.40;50.20;;;;;;6232544;23;20012;-81
2021/01/08 03:49:15;;;;;;;0.75;0.10;;;14.40;50.20;;;;;;6248381;23;20075;-83
2021/01/08 03:51:41;;;;;;;0.20;0.10;;;14.40;50.10;;;;;;6222312;23;20099;-80
2021/01/08 03:54:06;;;;;;;1.38;0.40;;;14.40;50.20;;;;;;6197137;23;20020;-81
2021/01/08 03:56:32;;;;;;;0.35;0.10;;;14.40;50.20;;;;;;6248346;23;20012;-82
2021/01/08 03:58:58;;;;;;;0.15;0.05;;;14.40;50.20;;;;;;6222530;23;20016;-81
2021/01/08 04:01:24;;;;;;;0.47;0.10;;;14.40;50.80;;;;;;6221961;23;20417;-82
2021/01/08 04:03:50;;;;;;;0.60;0.10;;;14.40;50.20;;;;;;6248540;23;20079;-80
2021/01/08 04:06:15;;;;;;;0.38;0.10;;;14.40;50.30;;;;;;6222029;23;20447;-80
2021/01/08 04:08:42;;;;;;;0.28;0.10;;;14.40;50.30;;;;;;6222497;23;20016;-83
2021/01/08 04:11:08;;;;;;;0.43;0.10;;;14.40;50.30;;;;;;6232097;23;20106;-80
2021/01/08 04:13:33;;;;;;;1.35;0.10;;;14.40;50.30;;;;;;6248505;23;20508;-80
2021/01/08 04:15:59;;;;;;;0.35;0.05;;;14.40;50.30;;;;;;6222161;23;20008;-80
2021/01/08 04:18:25;;;;;;;0.40;0.10;;;14.40;50.30;;;;;;6222539;23;20012;-81
2021/01/08 04:20:51;;;;;;;0.28;0.10;;;14.40;50.30;;;;;;6221453;23;20095;-81
2021/01/08 04:23:17;;;;;;;0.30;0.10;;;14.40;51.00;;;;;;6222201;23;20427;-80
2021/01/08 04:25:43;;;;;;;0.17;0.00;;;14.40;50.30;;;;;;6221901;23;20016;-82
2021/01/08 04:28:08;;;;;;;0.50;0.10;;;14.40;50.30;;;;;;6248927;23;20291;-81
2021/01/08 04:30:34;;;;;;;0.80;0.13;;;14.40;50.30;;;;;;6232245;23;20016;-81
2021/01/08 04:33:00;;;;;;;1.08;0.00;;;14.40;50.30;;;;;;6232279;23;20040;-82
2021/01/08 04:35:26;;;;;;;0.65;0.10;;;14.40;50.30;;;;;;6222427;23;20016;-80
2021/01/08 04:37:52;;;;;;;0.08;0.00;;;14.40;50.30;;;;;;6222223;23;20027;-81
2021/01/08 04:40:19;;;;;;;0.80;0.25;;;14.40;50.30;;;;;;6258971;23;20146;-81
2021/01/08 04:42:45;;;;;;;0.20;0.00;;;14.40;50.30;;;;;;6222056;23;20062;-83
2021/01/08 04:45:11;;;;;;;0.50;0.10;;;14.40;50.30;;;;;;6221723;23;20059;-81
2021/01/08 04:47:38;;;;;;;0.22;0.10;;;14.40;50.30;;;;;;6221811;23;20123;-80
2021/01/08 04:50:05;;;;;;;1.00;0.10;;;14.40;50.30;;;;;;6247934;23;20008;-82
2021/01/08 04:52:33;;;;;;;0.30;0.00;;;14.40;50.30;;;;;;6221998;23;20019;-80
2021/01/08 04:55:00;;;;;;;0.10;0.10;;;14.40;50.30;;;;;;6221786;23;20082;-81
2021/01/08 04:57:28;;;;;;;0.25;0.10;;;14.40;50.30;;;;;;6221644;23;20012;-83
2021/01/08 04:59:54;;;;;;;0.20;0.03;;;14.40;50.30;;;;;;6221532;23;20023;-80
2021/01/08 05:02:20;;;;;;;1.17;0.10;;;14.40;50.30;;;;;;6222064;23;20452;-81
2021/01/08 05:04:46;;;;;;;0.30;0.00;;;14.40;50.30;;;;;;6221696;23;20105;-80
2021/01/08 05:07:12;;;;;;;0.85;0.00;;;14.40;50.30;;;;;;6247477;23;20016;-81
2021/01/08 05:09:38;;;;;;;1.45;0.08;;;14.40;50.60;;;;;;6220767;23;20311;-82
2021/01/08 05:12:24;;;;;;;1.77;0.20;;;14.40;50.80;;;;;;6247680;23;20070;-82
2021/01/08 05:14:50;;;;;;;4.85;0.20;;;14.50;51.20;;;;;;6220251;23;20016;-80
2021/01/08 05:18:09;;;;;;;1.65;0.10;;;14.50;51.50;;;;;;6247816;23;20091;-86
2021/01/08 05:20:37;;;;;;;1.73;0.13;;;14.60;51.70;;;;;;6196535;23;20012;-83
2021/01/08 05:23:13;;;;;;;5.38;0.20;;;14.60;52.00;;;;;;6196630;23;20012;-88
2021/01/08 05:25:53;;;;;;;5.93;0.20;;;14.70;52.30;;;;;;6257399;23;20015;-87
2021/01/08 05:28:19;;;;;;;9.02;0.45;;;14.80;52.60;;;;;;6194469;23;20020;-83
2021/01/08 05:30:56;;;;;;;4.45;0.30;;;14.90;53.00;;;;;;6257313;23;20020;-86
2021/01/08 05:33:40;;;;;;;4.72;0.43;;;14.90;53.20;;;;;;6220539;23;20004;-88
2021/01/08 05:36:12;;;;;;;5.07;0.70;;;15.00;53.50;;;;;;6197403;23;20012;-85
2021/01/08 05:38:46;;;;;;;3.75;0.60;;;15.10;53.50;;;;;;6196939;23;20023;-83
2021/01/08 05:41:12;;;;;;;8.40;0.40;;;15.10;53.60;;;;;;6195468;23;20017;-82
2021/01/08 05:43:45;;;;;;;7.00;0.32;;;15.20;53.80;;;;;;6231450;23;20054;-88
2021/01/08 05:46:27;;;;;;;7.03;1.00;;;15.30;54.30;;;;;;6221198;23;20019;-82
2021/01/08 05:49:08;;;;;;;6.63;0.50;;;15.40;55.30;;;;;;6219332;23;20040;-82
2021/01/08 05:51:39;;;;;;;3.40;0.30;;;15.50;54.70;;;;;;6246837;23;20042;-82
2021/01/08 05:54:06;;;;;;;4.70;0.22;;;15.60;54.80;;;;;;6230748;23;20019;-82
2021/01/08 05:56:34;;;;;;;5.30;0.32;;;15.60;54.80;;;;;;6220457;23;20012;-83
2021/01/08 05:59:24;;;;;;;4.60;0.30;;;15.60;55.00;;;;;;6195647;23;20304;-85
2021/01/08 06:01:50;;;;;;;6.18;0.47;;;15.60;55.80;;;;;;6196550;23;20020;-82
2021/01/08 06:04:16;;;;;;;5.93;0.43;;;15.60;55.20;;;;;;6194556;23;20547;-83
2021/01/08 06:06:48;;;;;;;7.53;0.53;;;15.70;55.50;;;;;;6197774;23;20417;-82
2021/01/08 06:09:15;;;;;;;34.10;2.97;;;15.70;55.40;;;;;;6220880;23;20282;-84
2021/01/08 06:11:46;;;;;;;6.15;0.45;;;15.80;55.80;;;;;;6231882;23;20024;-82
2021/01/08 06:14:15;;;;;;;4.93;0.47;;;15.80;55.90;;;;;;6221481;23;20008;-83
2021/01/08 06:16:46;;;;;;;6.80;0.65;;;15.80;55.90;;;;;;6247060;23;20425;-83
2021/01/08 06:19:16;;;;;;;4.13;0.22;;;15.90;56.10;;;;;;6221022;23;20020;-82
2021/01/08 06:21:44;;;;;;;5.65;0.30;;;15.90;56.00;;;;;;6220888;23;20008;-84
2021/01/08 06:24:23;;;;;;;6.63;0.68;;;15.90;56.60;;;;;;6159161;23;20123;-83
2021/01/08 06:26:50;;;;;;;4.72;0.35;;;15.90;55.90;;;;;;6133137;23;20337;-83
2021/01/08 06:29:18;;;;;;;5.88;0.52;;;16.00;55.90;;;;;;6134275;23;20023;-84
2021/01/08 06:31:51;;;;;;;4.65;0.17;;;16.00;55.80;;;;;;6134988;23;20446;-85
2021/01/08 06:34:21;;;;;;;5.40;0.20;;;16.00;55.70;;;;;;6134920;23;20085;-84
2021/01/08 06:37:11;;;;;;;1.73;0.10;;;16.00;55.70;;;;;;6164242;23;20033;-83
2021/01/08 06:39:39;;;;;;;6.32;0.60;;;16.00;55.90;;;;;;6185012;23;20017;-83
2021/01/08 06:42:06;;;;;;;7.65;0.55;;;16.10;55.70;;;;;;6184893;23;20089;-84
2021/01/08 06:44:52;;;;;;;5.65;0.43;;;16.10;55.80;;;;;;6164689;23;20024;-82
2021/01/08 06:47:21;;;;;;;6.25;0.30;;;16.20;55.60;;;;;;6186350;23;20028;-82
2021/01/08 06:49:51;;;;;;;4.25;0.70;;;16.10;55.30;;;;;;6161635;23;20013;-81
2021/01/08 06:52:17;;;;;;;2.72;0.40;;;16.10;55.30;;;;;;6196569;23;20485;-80
2021/01/08 06:54:43;;;;;;;4.20;0.30;;;16.10;55.70;;;;;;6197529;23;20306;-81
2021/01/08 06:57:19;;;;;;;2.80;0.22;;;16.10;55.60;;;;;;6218506;23;20013;-82
2021/01/08 06:59:55;;;;;;;1.63;0.13;;;16.10;55.40;;;;;;6218263;23;20044;-82
2021/01/08 07:02:23;;;;;;;3.63;0.20;;;16.20;55.40;;;;;;6227887;23;20039;-80
2021/01/08 07:04:49;;;;;;;4.85;0.47;;;16.20;55.70;;;;;;6228470;23;20027;-85
2021/01/08 07:07:30;;;;;;;8.73;0.30;;;16.10;55.60;;;;;;6192552;23;20082;-80
2021/01/08 07:09:57;;;;;;;4.05;0.60;;;16.20;55.90;;;;;;6191665;23;20012;-83
2021/01/08 07:12:25;;;;;;;3.63;0.30;;;16.20;56.00;;;;;;6167306;23;20055;-83
2021/01/08 07:14:51;;;;;;;11.45;0.40;;;16.20;56.00;;;;;;6192345;23;20021;-81
2021/01/08 07:17:28;;;;;;;15.38;0.70;;;16.20;56.00;;;;;;6228480;23;20012;-84
2021/01/08 07:19:55;;;;;;;2.97;0.20;;;16.30;56.00;;;;;;6167305;23;20023;-83
2021/01/08 07:22:25;;;;;;;3.33;0.30;;;16.30;55.80;;;;;;6191761;23;20023;-86
2021/01/08 07:24:51;;;;;;;7.43;0.60;;;16.30;55.80;;;;;;6166202;23;20027;-84
2021/01/08 07:27:40;;;;;;;4.22;0.25;;;16.40;54.70;;;;;;6226370;23;20027;-83
2021/01/08 07:30:08;;;;;;;4.05;0.40;;;16.30;54.30;;;;;;6196993;23;20043;-84
2021/01/08 07:32:54;;;;;;;6.05;0.20;;;16.30;54.50;;;;;;6226275;23;20052;-84
2021/01/08 07:35:27;;;;;;;3.75;0.30;;;16.30;55.00;;;;;;6222397;23;20024;-83
2021/01/08 07:38:17;;;;;;;1.77;0.10;;;16.30;54.90;;;;;;6226453;23;20387;-83
2021/01/08 07:40:49;;;;;;;3.03;0.30;;;16.30;54.90;;;;;;6222221;23;20421;-82
2021/01/08 07:43:36;;;;;;;7.63;0.30;;;16.30;55.10;;;;;;6226481;23;20013;-81
2021/01/08 07:46:05;;;;;;;12.77;0.40;;;16.30;56.00;;;;;;6222338;23;20410;-81
2021/01/08 07:48:38;;;;;;;6.00;0.50;;;16.40;55.30;;;;;;6222084;23;20023;-80
2021/01/08 07:51:05;;;;;;;;;;;16.40;55.80;;;;;;6259068;23;20016;-79
2021/01/08 07:53:47;;;;;;;4.13;0.40;;;16.40;55.70;;;;;;6258935;23;19926;-81
2021/01/08 07:56:23;;;;;;;3.97;0.20;;;16.50;56.00;;;;;;6258445;23;20043;-81
2021/01/08 07:59:06;;;;;;;4.05;0.47;;;16.50;56.00;;;;;;6221909;23;20437;-79
2021/01/08 08:02:02;;;;;;;6.78;0.60;;;16.60;56.00;;;;;;6247944;23;20024;-89
2021/01/08 08:04:51;;;;;;;13.07;0.60;;;16.60;55.50;;;;;;6195540;23;20085;-87
2021/01/08 08:07:21;;;;;;;6.28;0.40;;;16.70;55.20;;;;;;6196886;23;20433;-84
2021/01/08 08:10:01;;;;;;;7.95;0.63;;;16.60;54.90;;;;;;6222287;23;20031;-85
2021/01/08 08:12:56;;;;;;;7.30;0.40;;;16.60;54.70;;;;;;6198201;23;20020;-88
2021/01/08 08:15:45;;;;;;;10.45;0.68;;;16.60;54.90;;;;;;6224387;23;20024;-86
2021/01/08 08:18:14;;;;;;;11.07;0.60;;;16.50;54.30;;;;;;6197676;23;20016;-87
2021/01/08 08:20:46;;;;;;;8.75;0.57;;;16.40;54.30;;;;;;6197242;23;20016;-87
2021/01/08 08:23:28;;;;;;;7.40;0.88;;;16.40;54.30;;;;;;6197923;23;20069;-87
2021/01/08 08:25:59;;;;;;;4.40;0.50;;;16.40;54.20;;;;;;6197205;23;20016;-87
2021/01/08 08:28:27;;;;;;;19.98;1.70;;;16.30;54.30;;;;;;6195905;23;20056;-81
2021/01/08 08:30:53;;;;;;;11.68;0.50;;;16.30;54.60;;;;;;6221792;23;20012;-82
2021/01/08 08:33:22;;;;;;;4.97;0.40;;;16.20;55.00;;;;;;6258720;23;20348;-82
2021/01/08 08:35:49;;;;;;;5.07;0.40;;;16.30;55.10;;;;;;6222179;23;20027;-82
2021/01/08 08:38:15;;;;;;;10.32;0.50;;;16.30;55.00;;;;;;6258579;23;20306;-82
2021/01/08 08:40:41;;;;;;;7.15;1.00;;;16.30;54.80;;;;;;6222362;23;20087;-82
2021/01/08 08:43:08;;;;;;;6.32;0.73;;;16.30;54.70;;;;;;6222215;23;20012;-81
2021/01/08 08:45:35;;;;;;;11.30;1.17;;;16.40;54.80;;;;;;6258291;23;20039;-82
2021/01/08 08:48:07;;;;;;;10.13;1.08;;;16.40;54.90;;;;;;6248404;23;20031;-81
2021/01/08 08:50:34;;;;;;;6.22;0.80;;;16.40;54.90;;;;;;6257962;23;20012;-80
2021/01/08 08:53:12;;;;;;;8.07;1.00;;;16.40;54.90;;;;;;6258634;23;20020;-81
2021/01/08 08:55:39;;;;;;;4.03;0.43;;;16.50;54.50;;;;;;6231918;23;20103;-82
2021/01/08 08:58:06;;;;;;;6.68;0.43;;;16.50;54.50;;;;;;6232377;23;20410;-82
2021/01/08 09:00:34;;;;;;;4.97;0.70;;;16.50;54.40;;;;;;6248960;23;20016;-82
2021/01/08 09:03:00;;;;;;;4.00;0.30;;;16.40;54.00;;;;;;6258507;23;20016;-82
2021/01/08 09:05:30;;;;;;;2.47;0.30;;;16.40;53.90;;;;;;6231754;23;20357;-82
2021/01/08 09:08:27;;;;;;;3.67;0.30;;;16.40;53.80;;;;;;6258120;23;20034;-82
2021/01/08 09:11:13;;;;;;;4.78;0.52;;;16.40;53.80;;;;;;6233257;23;20023;-83
2021/01/08 09:13:59;;;;;;;5.97;0.45;;;16.40;53.70;;;;;;6230898;23;20016;-82
2021/01/08 09:16:40;;;;;;;2.00;0.17;;;16.40;53.70;;;;;;6222071;23;20070;-82
2021/01/08 09:19:20;;;;;;;2.75;0.30;;;16.40;53.60;;;;;;6232411;23;20091;-83
2021/01/08 09:21:51;;;;;;;6.13;0.60;;;16.40;53.50;;;;;;6232318;23;20020;-82
2021/01/08 09:24:30;;;;;;;4.28;0.30;;;16.40;53.50;;;;;;6258433;23;20019;-82
2021/01/08 09:27:00;;;;;;;5.88;0.70;;;16.40;53.50;;;;;;6255577;23;20027;-81
2021/01/08 09:29:35;;;;;;;4.28;0.55;;;16.40;53.60;;;;;;6258451;23;20019;-81
2021/01/08 09:32:03;;;;;;;4.50;0.50;;;16.40;54.00;;;;;;6232035;23;20012;-81
2021/01/08 09:34:29;;;;;;;1.05;0.40;;;16.40;54.00;;;;;;6258629;23;20016;-81
2021/01/08 09:36:57;;;;;;;7.55;0.65;;;16.50;54.00;;;;;;6231975;23;20090;-82
2021/01/08 09:39:27;;;;;;;3.25;0.30;;;16.50;53.80;;;;;;6258258;23;20016;-82
2021/01/08 09:42:00;;;;;;;1.52;0.40;;;16.50;53.60;;;;;;6257857;23;20008;-82
2021/01/08 09:44:34;;;;;;;2.00;0.60;;;16.50;53.40;;;;;;6232448;23;20012;-82
2021/01/08 09:47:05;;;;;;;1.92;0.52;;;16.50;53.40;;;;;;6257880;23;20040;-82
2021/01/08 09:49:50;;;;;;;1.00;0.20;;;16.50;53.30;;;;;;6248045;23;20021;-81
2021/01/08 09:52:16;;;;;;;3.83;0.50;;;16.50;53.40;;;;;;6258286;23;20013;-81
2021/01/08 09:54:50;;;;;;;5.95;0.80;;;16.50;53.50;;;;;;6247700;23;20012;-82
2021/01/08 09:57:27;;;;;;;6.47;0.77;;;16.50;53.20;;;;;;6248123;23;20012;-83
2021/01/08 10:00:01;;;;;;;16.00;1.42;;;16.50;53.00;;;;;;6257985;23;20012;-82
2021/01/08 10:02:39;;;;;;;;;;;16.50;53.00;;;;;;6258119;23;20012;-83
2021/01/08 10:05:24;;;;;;;10.02;0.85;;;16.50;53.30;;;;;;6257551;23;20297;-82
2021/01/08 10:07:51;;;;;;;6.53;0.47;;;16.50;53.30;;;;;;6257758;23;20012;-82
2021/01/08 10:10:38;;;;;;;8.13;1.15;;;16.40;53.20;;;;;;6247363;23;20012;-82
2021/01/08 10:13:07;;;;;;;3.88;0.70;;;16.40;53.10;;;;;;6221093;23;20016;-82
2021/01/08 10:15:48;;;;;;;5.38;0.93;;;16.40;53.20;;;;;;6231423;23;20023;-82
2021/01/08 10:18:28;;;;;;;4.00;0.77;;;16.40;53.20;;;;;;6258235;23;20413;-82
2021/01/08 10:21:04;;;;;;;8.00;1.10;;;16.40;53.10;;;;;;6233122;23;20027;-82
2021/01/08 10:23:36;;;;;;;7.78;0.90;;;16.40;53.00;;;;;;6259512;23;20018;-82
2021/01/08 10:26:18;;;;;;;4.35;0.55;;;16.40;53.40;;;;;;6223193;23;20012;-82
2021/01/08 10:28:51;;;;;;;10.68;0.75;;;16.40;53.40;;;;;;6220740;23;20364;-82
2021/01/08 10:31:18;;;;;;;5.22;0.80;;;16.50;53.60;;;;;;6223372;23;20023;-82
2021/01/08 10:33:44;;;;;;;6.85;0.57;;;16.40;53.60;;;;;;6233347;23;20334;-82
2021/01/08 10:36:10;;;;;;;1.63;0.40;;;16.50;53.60;;;;;;6223033;23;20047;-83
2021/01/08 10:38:39;;;;;;;12.90;0.80;;;16.50;53.60;;;;;;6249612;23;20062;-85
2021/01/08 10:41:04;;;;;;;8.00;1.10;;;16.50;53.40;;;;;;6198084;23;20078;-83
2021/01/08 10:43:32;;;;;;;18.65;1.83;;;16.50;52.20;;;;;;6223325;23;20018;-84
2021/01/08 10:45:59;;;;;;;10.55;1.15;;;16.50;51.70;;;;;;6198464;23;20012;-81
2021/01/08 10:48:26;;;;;;;20.10;1.20;;;16.50;51.90;;;;;;6259833;23;20012;-84
2021/01/08 10:50:52;;;;;;;10.35;1.52;;;16.40;52.60;;;;;;6222807;23;20027;-84
2021/01/08 10:53:18;;;;;;;4.38;0.82;;;16.40;52.90;;;;;;6198158;23;20020;-84
2021/01/08 10:55:50;;;;;;;4.07;0.90;;;16.40;53.30;;;;;;6198266;23;20413;-84
2021/01/08 10:58:16;;;;;;;5.60;0.73;;;16.40;53.50;;;;;;6198011;23;20476;-84
2021/01/08 11:00:43;;;;;;;3.30;0.50;;;16.40;53.60;;;;;;6198295;23;20016;-84
2021/01/08 11:03:09;;;;;;;5.38;0.65;;;16.40;53.70;;;;;;6232696;23;20012;-82
2021/01/08 11:05:39;;;;;;;4.28;0.63;;;16.40;53.80;;;;;;6259118;23;20019;-82
2021/01/08 11:08:07;;;;;;;2.80;0.70;;;16.40;53.90;;;;;;6259173;23;20012;-82
2021/01/08 11:10:33;;;;;;;9.63;0.80;;;16.40;54.00;;;;;;6249028;23;20313;-83
2021/01/08 11:12:59;;;;;;;6.35;0.73;;;16.40;54.00;;;;;;6197434;23;20086;-83
2021/01/08 11:15:25;;;;;;;4.93;0.60;;;16.40;53.70;;;;;;6223057;23;20414;-83
2021/01/08 11:17:51;;;;;;;10.32;0.70;;;16.40;53.70;;;;;;6223092;23;20020;-84
2021/01/08 11:20:17;;;;;;;4.30;0.75;;;16.40;53.80;;;;;;6249479;23;20008;-83
2021/01/08 11:22:43;;;;;;;9.85;0.80;;;16.40;53.90;;;;;;6223050;23;20348;-82
2021/01/08 11:25:12;;;;;;;13.38;1.45;;;16.40;54.00;;;;;;6259178;23;20425;-83
2021/01/08 11:27:38;;;;;;;7.20;0.75;;;16.40;54.10;;;;;;6249126;23;20031;-84
2021/01/08 11:30:05;;;;;;;9.27;0.77;;;16.30;53.80;;;;;;6222439;23;20016;-82
2021/01/08 11:32:31;;;;;;;15.85;1.42;;;16.30;53.80;;;;;;6197325;23;20012;-83
2021/01/08 11:34:56;;;;;;;6.47;0.75;;;16.30;54.00;;;;;;6197425;23;20082;-83
2021/01/08 11:37:22;;;;;;;7.43;0.85;;;16.30;54.00;;;;;;6248629;23;20008;-83
2021/01/08 11:39:48;;;;;;;4.68;0.50;;;16.30;54.00;;;;;;6222409;23;20016;-84
2021/01/08 11:42:14;;;;;;;4.05;0.40;;;16.30;53.90;;;;;;6259509;23;20077;-82
2021/01/08 11:44:43;;;;;;;2.28;0.50;;;16.30;53.90;;;;;;6232711;23;20046;-83
2021/01/08 11:47:09;;;;;;;4.07;0.40;;;16.30;53.80;;;;;;6223120;23;20008;-82
2021/01/08 11:49:35;;;;;;;2.78;0.43;;;16.30;53.80;;;;;;6233328;23;20012;-83
2021/01/08 11:52:01;;;;;;;5.22;0.50;;;16.20;53.70;;;;;;6258800;23;20019;-83
2021/01/08 11:54:27;;;;;;;5.85;0.50;;;16.20;53.60;;;;;;6223025;23;20008;-83
2021/01/08 11:56:53;;;;;;;3.55;0.40;;;16.20;53.60;;;;;;6258791;23;20287;-83
2021/01/08 11:59:19;;;;;;;2.25;0.50;;;16.20;53.50;;;;;;6197425;23;20421;-83
2021/01/08 12:01:44;;;;;;;3.22;0.50;;;16.20;53.40;;;;;;6231862;23;20039;-83
2021/01/08 12:04:11;;;;;;;3.42;0.50;;;16.20;53.40;;;;;;6196987;23;20017;-83
2021/01/08 12:06:37;;;;;;;2.85;0.30;;;16.20;53.40;;;;;;6222227;23;20012;-83
2021/01/08 12:09:06;;;;;;;3.92;0.45;;;16.20;53.40;;;;;;6222568;23;20070;-83
2021/01/08 12:11:32;;;;;;;3.50;0.30;;;16.10;53.30;;;;;;6248485;23;20015;-82
2021/01/08 12:13:58;;;;;;;2.22;0.38;;;16.10;53.30;;;;;;6222074;23;20086;-83
2021/01/08 12:16:28;;;;;;;4.25;0.60;;;16.10;53.20;;;;;;6222131;23;20008;-83
2021/01/08 12:18:55;;;;;;;2.08;0.63;;;16.10;53.20;;;;;;6249095;23;20476;-83
2021/01/08 12:21:24;;;;;;;3.22;0.40;;;16.10;53.20;;;;;;6222619;23;20301;-84
2021/01/08 12:23:54;;;;;;;0.90;0.20;;;16.00;53.20;;;;;;6232112;23;20012;-83
2021/01/08 12:26:20;;;;;;;3.00;0.52;;;16.00;53.10;;;;;;6231974;23;20313;-83
2021/01/08 12:28:47;;;;;;;1.85;0.40;;;16.00;53.20;;;;;;6221928;23;20019;-82
2021/01/08 12:31:14;;;;;;;2.90;0.28;;;16.00;53.10;;;;;;6222190;23;20035;-82
2021/01/08 12:33:41;;;;;;;1.30;0.30;;;15.90;53.10;;;;;;6221957;23;20012;-83
2021/01/08 12:36:09;;;;;;;1.48;0.40;;;16.00;53.10;;;;;;6222642;23;20415;-83
2021/01/08 12:38:35;;;;;;;3.15;0.45;;;15.90;53.10;;;;;;6222232;23;20020;-83
2021/01/08 12:41:01;;;;;;;1.40;0.20;;;15.90;53.10;;;;;;6185930;23;20079;-83
2021/01/08 12:43:27;;;;;;;1.13;0.30;;;15.90;53.10;;;;;;6185695;23;20009;-83
2021/01/08 12:45:53;;;;;;;1.73;0.30;;;15.90;53.00;;;;;;6187740;23;20318;-84
2021/01/08 12:48:19;;;;;;;2.53;0.30;;;15.80;53.00;;;;;;6195777;23;20021;-83
2021/01/08 12:50:44;;;;;;;0.75;0.20;;;15.90;53.00;;;;;;6185749;23;20414;-83
2021/01/08 12:53:11;;;;;;;0.77;0.30;;;15.80;52.90;;;;;;6195721;23;20075;-83
2021/01/08 12:55:37;;;;;;;1.95;0.35;;;15.80;53.00;;;;;;6185818;23;20016;-83
2021/01/08 12:58:03;;;;;;;0.68;0.43;;;15.80;53.00;;;;;;6185708;23;20120;-82
2021/01/08 13:00:30;;;;;;;1.17;0.20;;;15.80;53.00;;;;;;6193427;23;20017;-83